sensor_id;sensor_type;location;lat;lon;timestamp;P1;durP1;ratioP1;P2;durP2;ratioP2
71896;SDS011;59767;51.344;12.362;2022-10-31T00:00:01;15.60;;;6.20;;
71896;SDS011;59767;51.344;12.362;2022-10-31T00:03:05;17.45;;;6.07;;
71896;SDS011;59767;51.344;12.362;2022-10-31T00:06:09;18.42;;;6.40;;
71896;SDS011;59767;51.344;12.362;2022-10-31T00:09:13;15.20;;;5.22;;
71896;SDS011;59767;51.344;12.362;2022-10-31T00:12:17;17.38;;;6.07;;
71896;SDS011;59767;51.344;12.362;2022-10-31T00:15:21;20.80;;;6.18;;
71896;SDS011;59767;51.344;12.362;2022-10-31T00:18:25;15.07;;;5.45;;
71896;SDS011;59767;51.344;12.362;2022-10-31T00:21:30;15.85;;;5.25;;
71896;SDS011;59767;51.344;12.362;2022-10-31T00:24:34;20.65;;;5.18;;
71896;SDS011;59767;51.344;12.362;2022-10-31T00:27:38;15.50;;;5.55;;
71896;SDS011;59767;51.344;12.362;2022-10-31T00:30:42;21.02;;;5.65;;
71896;SDS011;59767;51.344;12.362;2022-10-31T00:33:46;16.05;;;5.60;;
71896;SDS011;59767;51.344;12.362;2022-10-31T00:36:50;15.23;;;4.88;;
71896;SDS011;59767;51.344;12.362;2022-10-31T00:39:54;22.33;;;5.88;;
71896;SDS011;59767;51.344;12.362;2022-10-31T00:42:58;17.25;;;5.18;;
71896;SDS011;59767;51.344;12.362;2022-10-31T00:46:03;14.55;;;5.63;;
71896;SDS011;59767;51.344;12.362;2022-10-31T00:49:07;19.08;;;5.32;;
71896;SDS011;59767;51.344;12.362;2022-10-31T00:52:10;19.25;;;5.88;;
71896;SDS011;59767;51.344;12.362;2022-10-31T00:55:14;16.25;;;4.97;;
71896;SDS011;59767;51.344;12.362;2022-10-31T00:58:18;15.07;;;5.00;;
71896;SDS011;59767;51.344;12.362;2022-10-31T01:01:22;16.38;;;5.10;;
71896;SDS011;59767;51.344;12.362;2022-10-31T01:04:27;18.35;;;5.30;;
71896;SDS011;59767;51.344;12.362;2022-10-31T01:07:31;13.95;;;4.88;;
71896;SDS011;59767;51.344;12.362;2022-10-31T01:10:35;16.67;;;5.30;;
71896;SDS011;59767;51.344;12.362;2022-10-31T01:13:39;16.48;;;5.28;;
71896;SDS011;59767;51.344;12.362;2022-10-31T01:16:43;15.35;;;5.25;;
71896;SDS011;59767;51.344;12.362;2022-10-31T01:19:46;13.88;;;5.18;;
71896;SDS011;59767;51.344;12.362;2022-10-31T01:22:50;17.50;;;5.25;;
71896;SDS011;59767;51.344;12.362;2022-10-31T01:25:58;17.58;;;4.90;;
71896;SDS011;59767;51.344;12.362;2022-10-31T01:29:10;15.38;;;5.07;;
71896;SDS011;59767;51.344;12.362;2022-10-31T01:32:14;13.32;;;5.00;;
71896;SDS011;59767;51.344;12.362;2022-10-31T01:35:18;17.75;;;5.03;;
71896;SDS011;59767;51.344;12.362;2022-10-31T01:38:22;16.52;;;5.20;;
71896;SDS011;59767;51.344;12.362;2022-10-31T01:41:29;15.20;;;5.70;;
71896;SDS011;59767;51.344;12.362;2022-10-31T01:47:41;17.00;;;5.28;;
71896;SDS011;59767;51.344;12.362;2022-10-31T01:50:48;15.60;;;4.78;;
71896;SDS011;59767;51.344;12.362;2022-10-31T01:53:57;14.88;;;5.30;;
71896;SDS011;59767;51.344;12.362;2022-10-31T01:57:04;17.70;;;5.45;;
71896;SDS011;59767;51.344;12.362;2022-10-31T02:00:12;14.15;;;5.30;;
71896;SDS011;59767;51.344;12.362;2022-10-31T02:03:18;17.63;;;5.30;;
71896;SDS011;59767;51.344;12.362;2022-10-31T02:06:36;18.65;;;4.95;;
71896;SDS011;59767;51.344;12.362;2022-10-31T02:09:41;18.08;;;5.32;;
71896;SDS011;59767;51.344;12.362;2022-10-31T02:12:50;14.77;;;5.03;;
71896;SDS011;59767;51.344;12.362;2022-10-31T02:15:57;19.70;;;5.55;;
71896;SDS011;59767;51.344;12.362;2022-10-31T02:19:02;19.17;;;5.00;;
71896;SDS011;59767;51.344;12.362;2022-10-31T02:22:14;13.07;;;5.25;;
71896;SDS011;59767;51.344;12.362;2022-10-31T02:32:42;15.13;;;5.05;;
71896;SDS011;59767;51.344;12.362;2022-10-31T02:35:58;23.50;;;5.60;;
71896;SDS011;59767;51.344;12.362;2022-10-31T02:42:39;18.40;;;5.43;;
71896;SDS011;59767;51.344;12.362;2022-10-31T02:46:10;15.70;;;5.10;;
71896;SDS011;59767;51.344;12.362;2022-10-31T02:49:21;15.57;;;5.70;;
71896;SDS011;59767;51.344;12.362;2022-10-31T02:52:32;19.25;;;5.72;;
71896;SDS011;59767;51.344;12.362;2022-10-31T02:58:57;22.08;;;6.22;;
71896;SDS011;59767;51.344;12.362;2022-10-31T03:02:09;14.70;;;5.25;;
71896;SDS011;59767;51.344;12.362;2022-10-31T03:08:50;16.00;;;5.97;;
71896;SDS011;59767;51.344;12.362;2022-10-31T03:12:07;16.58;;;5.53;;
71896;SDS011;59767;51.344;12.362;2022-10-31T03:15:19;14.77;;;5.50;;
71896;SDS011;59767;51.344;12.362;2022-10-31T03:18:53;22.42;;;6.05;;
71896;SDS011;59767;51.344;12.362;2022-10-31T03:22:04;13.15;;;5.28;;
71896;SDS011;59767;51.344;12.362;2022-10-31T03:25:14;15.00;;;5.70;;
71896;SDS011;59767;51.344;12.362;2022-10-31T03:28:18;19.42;;;6.32;;
71896;SDS011;59767;51.344;12.362;2022-10-31T03:31:29;21.27;;;5.03;;
71896;SDS011;59767;51.344;12.362;2022-10-31T03:34:37;15.93;;;5.70;;
71896;SDS011;59767;51.344;12.362;2022-10-31T03:37:43;19.48;;;6.07;;
71896;SDS011;59767;51.344;12.362;2022-10-31T03:40:49;18.13;;;5.90;;
71896;SDS011;59767;51.344;12.362;2022-10-31T03:43:57;18.52;;;6.00;;
71896;SDS011;59767;51.344;12.362;2022-10-31T03:47:06;15.98;;;6.45;;
71896;SDS011;59767;51.344;12.362;2022-10-31T03:50:11;14.18;;;5.50;;
71896;SDS011;59767;51.344;12.362;2022-10-31T03:53:22;17.73;;;5.68;;
71896;SDS011;59767;51.344;12.362;2022-10-31T03:56:34;14.77;;;5.85;;
71896;SDS011;59767;51.344;12.362;2022-10-31T03:59:41;16.77;;;5.50;;
71896;SDS011;59767;51.344;12.362;2022-10-31T04:02:59;13.88;;;5.40;;
71896;SDS011;59767;51.344;12.362;2022-10-31T04:06:09;12.85;;;5.65;;
71896;SDS011;59767;51.344;12.362;2022-10-31T04:09:15;13.90;;;5.45;;
71896;SDS011;59767;51.344;12.362;2022-10-31T04:12:21;14.18;;;5.32;;
71896;SDS011;59767;51.344;12.362;2022-10-31T04:15:27;17.95;;;5.88;;
71896;SDS011;59767;51.344;12.362;2022-10-31T04:18:32;15.55;;;5.88;;
71896;SDS011;59767;51.344;12.362;2022-10-31T04:21:36;19.52;;;5.80;;
71896;SDS011;59767;51.344;12.362;2022-10-31T04:24:41;14.82;;;5.18;;
71896;SDS011;59767;51.344;12.362;2022-10-31T04:27:44;12.88;;;5.18;;
71896;SDS011;59767;51.344;12.362;2022-10-31T04:30:49;19.33;;;5.50;;
71896;SDS011;59767;51.344;12.362;2022-10-31T04:33:53;17.20;;;5.93;;
71896;SDS011;59767;51.344;12.362;2022-10-31T04:36:57;16.35;;;5.70;;
71896;SDS011;59767;51.344;12.362;2022-10-31T04:40:01;13.43;;;5.53;;
71896;SDS011;59767;51.344;12.362;2022-10-31T04:43:05;13.65;;;5.53;;
71896;SDS011;59767;51.344;12.362;2022-10-31T04:46:10;15.93;;;5.45;;
71896;SDS011;59767;51.344;12.362;2022-10-31T04:49:14;22.20;;;6.20;;
71896;SDS011;59767;51.344;12.362;2022-10-31T04:52:18;15.27;;;6.28;;
71896;SDS011;59767;51.344;12.362;2022-10-31T04:55:22;15.93;;;5.75;;
71896;SDS011;59767;51.344;12.362;2022-10-31T04:58:26;19.73;;;6.15;;
71896;SDS011;59767;51.344;12.362;2022-10-31T05:01:31;15.63;;;6.53;;
71896;SDS011;59767;51.344;12.362;2022-10-31T05:04:35;16.65;;;5.88;;
71896;SDS011;59767;51.344;12.362;2022-10-31T05:07:40;16.45;;;5.53;;
71896;SDS011;59767;51.344;12.362;2022-10-31T05:10:45;16.20;;;6.28;;
71896;SDS011;59767;51.344;12.362;2022-10-31T05:13:49;17.02;;;5.88;;
71896;SDS011;59767;51.344;12.362;2022-10-31T05:16:53;16.08;;;5.57;;
71896;SDS011;59767;51.344;12.362;2022-10-31T05:19:57;16.65;;;6.93;;
71896;SDS011;59767;51.344;12.362;2022-10-31T05:23:00;18.38;;;6.35;;
71896;SDS011;59767;51.344;12.362;2022-10-31T05:26:05;16.92;;;5.70;;
71896;SDS011;59767;51.344;12.362;2022-10-31T05:29:09;16.05;;;6.13;;
71896;SDS011;59767;51.344;12.362;2022-10-31T05:32:12;16.85;;;6.20;;
71896;SDS011;59767;51.344;12.362;2022-10-31T05:35:18;18.33;;;6.32;;
71896;SDS011;59767;51.344;12.362;2022-10-31T05:38:30;15.98;;;5.78;;
71896;SDS011;59767;51.344;12.362;2022-10-31T05:41:34;16.05;;;6.22;;
71896;SDS011;59767;51.344;12.362;2022-10-31T05:44:38;17.23;;;6.80;;
71896;SDS011;59767;51.344;12.362;2022-10-31T05:47:41;18.05;;;5.93;;
71896;SDS011;59767;51.344;12.362;2022-10-31T05:50:47;14.10;;;6.20;;
71896;SDS011;59767;51.344;12.362;2022-10-31T05:53:52;14.63;;;6.28;;
71896;SDS011;59767;51.344;12.362;2022-10-31T05:56:56;15.82;;;6.28;;
71896;SDS011;59767;51.344;12.362;2022-10-31T06:00:00;17.98;;;5.90;;
71896;SDS011;59767;51.344;12.362;2022-10-31T06:03:05;19.23;;;6.20;;
71896;SDS011;59767;51.344;12.362;2022-10-31T06:06:12;14.73;;;6.18;;
71896;SDS011;59767;51.344;12.362;2022-10-31T06:09:16;14.00;;;6.13;;
71896;SDS011;59767;51.344;12.362;2022-10-31T06:12:20;19.13;;;6.13;;
71896;SDS011;59767;51.344;12.362;2022-10-31T06:15:24;20.95;;;6.70;;
71896;SDS011;59767;51.344;12.362;2022-10-31T06:18:28;16.13;;;6.57;;
71896;SDS011;59767;51.344;12.362;2022-10-31T06:21:32;20.98;;;6.72;;
71896;SDS011;59767;51.344;12.362;2022-10-31T06:24:36;17.58;;;6.53;;
71896;SDS011;59767;51.344;12.362;2022-10-31T06:27:41;16.05;;;6.03;;
71896;SDS011;59767;51.344;12.362;2022-10-31T06:30:45;14.50;;;6.18;;
71896;SDS011;59767;51.344;12.362;2022-10-31T06:33:50;16.95;;;6.70;;
71896;SDS011;59767;51.344;12.362;2022-10-31T06:36:54;19.00;;;6.65;;
71896;SDS011;59767;51.344;12.362;2022-10-31T06:39:58;17.70;;;6.63;;
71896;SDS011;59767;51.344;12.362;2022-10-31T06:43:02;20.88;;;6.93;;
71896;SDS011;59767;51.344;12.362;2022-10-31T06:46:06;16.25;;;6.95;;
71896;SDS011;59767;51.344;12.362;2022-10-31T06:49:10;20.33;;;7.10;;
71896;SDS011;59767;51.344;12.362;2022-10-31T06:52:14;19.10;;;7.20;;
71896;SDS011;59767;51.344;12.362;2022-10-31T06:55:19;16.70;;;6.47;;
71896;SDS011;59767;51.344;12.362;2022-10-31T06:58:30;16.70;;;6.55;;
71896;SDS011;59767;51.344;12.362;2022-10-31T07:01:34;17.10;;;6.85;;
71896;SDS011;59767;51.344;12.362;2022-10-31T07:04:38;17.25;;;6.25;;
71896;SDS011;59767;51.344;12.362;2022-10-31T07:07:43;20.88;;;7.68;;
71896;SDS011;59767;51.344;12.362;2022-10-31T07:10:50;20.23;;;6.30;;
71896;SDS011;59767;51.344;12.362;2022-10-31T07:13:56;18.40;;;7.40;;
71896;SDS011;59767;51.344;12.362;2022-10-31T07:16:59;21.00;;;7.30;;
71896;SDS011;59767;51.344;12.362;2022-10-31T07:20:04;21.40;;;7.00;;
71896;SDS011;59767;51.344;12.362;2022-10-31T07:23:09;17.23;;;7.15;;
71896;SDS011;59767;51.344;12.362;2022-10-31T07:26:14;17.25;;;6.75;;
71896;SDS011;59767;51.344;12.362;2022-10-31T07:29:19;19.27;;;6.90;;
71896;SDS011;59767;51.344;12.362;2022-10-31T07:32:22;19.50;;;6.78;;
71896;SDS011;59767;51.344;12.362;2022-10-31T07:35:27;18.20;;;7.25;;
71896;SDS011;59767;51.344;12.362;2022-10-31T07:38:33;15.25;;;6.30;;
71896;SDS011;59767;51.344;12.362;2022-10-31T07:41:37;14.93;;;5.97;;
71896;SDS011;59767;51.344;12.362;2022-10-31T07:44:41;15.30;;;6.30;;
71896;SDS011;59767;51.344;12.362;2022-10-31T07:47:46;16.73;;;6.18;;
71896;SDS011;59767;51.344;12.362;2022-10-31T07:50:54;19.77;;;6.40;;
71896;SDS011;59767;51.344;12.362;2022-10-31T07:53:58;11.55;;;5.88;;
71896;SDS011;59767;51.344;12.362;2022-10-31T07:57:02;19.70;;;6.30;;
71896;SDS011;59767;51.344;12.362;2022-10-31T08:00:07;15.95;;;6.22;;
71896;SDS011;59767;51.344;12.362;2022-10-31T08:03:14;21.23;;;6.30;;
71896;SDS011;59767;51.344;12.362;2022-10-31T08:06:19;17.60;;;6.18;;
71896;SDS011;59767;51.344;12.362;2022-10-31T08:09:23;16.90;;;6.50;;
71896;SDS011;59767;51.344;12.362;2022-10-31T08:12:27;16.23;;;6.20;;
71896;SDS011;59767;51.344;12.362;2022-10-31T08:15:31;14.40;;;5.97;;
71896;SDS011;59767;51.344;12.362;2022-10-31T08:18:38;16.77;;;6.55;;
71896;SDS011;59767;51.344;12.362;2022-10-31T08:21:42;15.23;;;6.45;;
71896;SDS011;59767;51.344;12.362;2022-10-31T08:24:46;16.27;;;6.85;;
71896;SDS011;59767;51.344;12.362;2022-10-31T08:27:50;20.00;;;7.00;;
71896;SDS011;59767;51.344;12.362;2022-10-31T08:30:56;19.50;;;7.45;;
71896;SDS011;59767;51.344;12.362;2022-10-31T08:34:01;17.75;;;6.38;;
71896;SDS011;59767;51.344;12.362;2022-10-31T08:37:05;13.85;;;6.07;;
71896;SDS011;59767;51.344;12.362;2022-10-31T08:40:10;17.40;;;6.15;;
71896;SDS011;59767;51.344;12.362;2022-10-31T08:43:15;17.77;;;7.15;;
71896;SDS011;59767;51.344;12.362;2022-10-31T08:46:20;16.48;;;6.63;;
71896;SDS011;59767;51.344;12.362;2022-10-31T08:49:24;15.65;;;6.70;;
71896;SDS011;59767;51.344;12.362;2022-10-31T08:52:28;18.80;;;7.63;;
71896;SDS011;59767;51.344;12.362;2022-10-31T08:55:56;24.83;;;9.52;;
71896;SDS011;59767;51.344;12.362;2022-10-31T08:59:00;19.35;;;7.18;;
71896;SDS011;59767;51.344;12.362;2022-10-31T09:02:04;20.75;;;8.57;;
71896;SDS011;59767;51.344;12.362;2022-10-31T09:05:08;24.02;;;9.02;;
71896;SDS011;59767;51.344;12.362;2022-10-31T09:08:13;24.23;;;9.60;;
71896;SDS011;59767;51.344;12.362;2022-10-31T09:11:19;24.98;;;10.32;;
71896;SDS011;59767;51.344;12.362;2022-10-31T09:14:23;27.13;;;11.25;;
71896;SDS011;59767;51.344;12.362;2022-10-31T09:17:27;27.02;;;11.38;;
71896;SDS011;59767;51.344;12.362;2022-10-31T09:20:33;32.85;;;12.20;;
71896;SDS011;59767;51.344;12.362;2022-10-31T09:23:38;30.45;;;13.38;;
71896;SDS011;59767;51.344;12.362;2022-10-31T09:26:42;29.42;;;13.18;;
71896;SDS011;59767;51.344;12.362;2022-10-31T09:29:46;35.42;;;14.68;;
71896;SDS011;59767;51.344;12.362;2022-10-31T09:32:57;39.03;;;16.90;;
71896;SDS011;59767;51.344;12.362;2022-10-31T09:36:02;39.40;;;17.10;;
71896;SDS011;59767;51.344;12.362;2022-10-31T09:39:07;33.80;;;16.13;;
71896;SDS011;59767;51.344;12.362;2022-10-31T09:45:33;41.58;;;18.63;;
71896;SDS011;59767;51.344;12.362;2022-10-31T09:52:21;41.35;;;18.13;;
71896;SDS011;59767;51.344;12.362;2022-10-31T09:58:53;40.67;;;18.55;;
71896;SDS011;59767;51.344;12.362;2022-10-31T10:05:46;37.53;;;18.17;;
71896;SDS011;59767;51.344;12.362;2022-10-31T10:08:49;48.25;;;20.90;;
71896;SDS011;59767;51.344;12.362;2022-10-31T10:12:18;52.22;;;23.10;;
71896;SDS011;59767;51.344;12.362;2022-10-31T10:15:44;45.88;;;21.48;;
71896;SDS011;59767;51.344;12.362;2022-10-31T10:25:39;64.40;;;29.52;;
71896;SDS011;59767;51.344;12.362;2022-10-31T10:28:45;65.75;;;30.13;;
71896;SDS011;59767;51.344;12.362;2022-10-31T10:31:53;60.17;;;28.85;;
71896;SDS011;59767;51.344;12.362;2022-10-31T10:35:14;59.60;;;28.17;;
71896;SDS011;59767;51.344;12.362;2022-10-31T10:38:27;59.75;;;27.90;;
71896;SDS011;59767;51.344;12.362;2022-10-31T10:41:49;61.47;;;28.35;;
71896;SDS011;59767;51.344;12.362;2022-10-31T10:45:14;63.13;;;28.00;;
71896;SDS011;59767;51.344;12.362;2022-10-31T10:48:44;64.93;;;29.77;;
71896;SDS011;59767;51.344;12.362;2022-10-31T10:51:59;63.63;;;28.73;;
71896;SDS011;59767;51.344;12.362;2022-10-31T10:55:46;53.20;;;26.60;;
71896;SDS011;59767;51.344;12.362;2022-10-31T10:59:01;64.70;;;28.67;;
71896;SDS011;59767;51.344;12.362;2022-10-31T11:08:54;60.03;;;27.13;;
71896;SDS011;59767;51.344;12.362;2022-10-31T11:11:58;59.90;;;27.92;;
71896;SDS011;59767;51.344;12.362;2022-10-31T11:15:19;59.45;;;27.95;;
71896;SDS011;59767;51.344;12.362;2022-10-31T11:18:27;53.80;;;26.40;;
71896;SDS011;59767;51.344;12.362;2022-10-31T11:21:33;61.25;;;27.65;;
71896;SDS011;59767;51.344;12.362;2022-10-31T11:24:39;64.30;;;29.02;;
71896;SDS011;59767;51.344;12.362;2022-10-31T11:27:44;57.50;;;27.15;;
71896;SDS011;59767;51.344;12.362;2022-10-31T11:34:19;59.50;;;27.23;;
71896;SDS011;59767;51.344;12.362;2022-10-31T11:37:42;54.55;;;26.33;;
71896;SDS011;59767;51.344;12.362;2022-10-31T11:40:51;60.42;;;27.10;;
71896;SDS011;59767;51.344;12.362;2022-10-31T11:44:02;61.53;;;26.60;;
71896;SDS011;59767;51.344;12.362;2022-10-31T11:47:36;53.08;;;26.13;;
71896;SDS011;59767;51.344;12.362;2022-10-31T11:50:40;62.17;;;28.85;;
71896;SDS011;59767;51.344;12.362;2022-10-31T11:53:52;58.25;;;27.48;;
71896;SDS011;59767;51.344;12.362;2022-10-31T11:57:20;58.05;;;27.33;;
71896;SDS011;59767;51.344;12.362;2022-10-31T12:03:38;63.47;;;28.73;;
71896;SDS011;59767;51.344;12.362;2022-10-31T12:06:52;61.22;;;28.77;;
71896;SDS011;59767;51.344;12.362;2022-10-31T12:09:57;63.47;;;28.45;;
71896;SDS011;59767;51.344;12.362;2022-10-31T12:13:05;60.72;;;28.73;;
71896;SDS011;59767;51.344;12.362;2022-10-31T12:16:42;54.80;;;25.95;;
71896;SDS011;59767;51.344;12.362;2022-10-31T12:20:26;61.70;;;28.33;;
71896;SDS011;59767;51.344;12.362;2022-10-31T12:30:39;61.88;;;26.73;;
71896;SDS011;59767;51.344;12.362;2022-10-31T12:33:47;61.95;;;27.83;;
71896;SDS011;59767;51.344;12.362;2022-10-31T12:37:13;61.10;;;26.48;;
71896;SDS011;59767;51.344;12.362;2022-10-31T12:50:35;58.30;;;26.23;;
71896;SDS011;59767;51.344;12.362;2022-10-31T12:54:04;55.47;;;25.50;;
71896;SDS011;59767;51.344;12.362;2022-10-31T12:57:30;53.38;;;26.88;;
71896;SDS011;59767;51.344;12.362;2022-10-31T13:00:38;56.55;;;26.05;;
71896;SDS011;59767;51.344;12.362;2022-10-31T13:07:35;54.17;;;24.02;;
71896;SDS011;59767;51.344;12.362;2022-10-31T13:17:42;54.05;;;26.05;;
71896;SDS011;59767;51.344;12.362;2022-10-31T13:20:49;57.67;;;27.17;;
71896;SDS011;59767;51.344;12.362;2022-10-31T13:23:59;57.65;;;26.08;;
71896;SDS011;59767;51.344;12.362;2022-10-31T13:27:17;57.28;;;25.77;;
71896;SDS011;59767;51.344;12.362;2022-10-31T13:30:50;60.33;;;26.70;;
71896;SDS011;59767;51.344;12.362;2022-10-31T13:33:57;59.95;;;27.35;;
71896;SDS011;59767;51.344;12.362;2022-10-31T13:40:50;54.70;;;25.83;;
71896;SDS011;59767;51.344;12.362;2022-10-31T13:50:31;54.28;;;24.45;;
71896;SDS011;59767;51.344;12.362;2022-10-31T13:53:41;49.47;;;24.23;;
71896;SDS011;59767;51.344;12.362;2022-10-31T13:56:48;53.60;;;24.35;;
71896;SDS011;59767;51.344;12.362;2022-10-31T13:59:54;52.50;;;23.27;;
71896;SDS011;59767;51.344;12.362;2022-10-31T14:03:01;49.10;;;21.23;;
71896;SDS011;59767;51.344;12.362;2022-10-31T14:06:07;52.60;;;20.20;;
71896;SDS011;59767;51.344;12.362;2022-10-31T14:09:24;40.80;;;18.98;;
71896;SDS011;59767;51.344;12.362;2022-10-31T14:12:33;44.22;;;19.23;;
71896;SDS011;59767;51.344;12.362;2022-10-31T14:15:42;41.17;;;18.02;;
71896;SDS011;59767;51.344;12.362;2022-10-31T14:19:02;41.63;;;17.65;;
71896;SDS011;59767;51.344;12.362;2022-10-31T14:22:20;37.50;;;17.23;;
71896;SDS011;59767;51.344;12.362;2022-10-31T14:25:30;42.28;;;18.75;;
71896;SDS011;59767;51.344;12.362;2022-10-31T14:28:35;46.67;;;19.05;;
71896;SDS011;59767;51.344;12.362;2022-10-31T14:31:39;39.92;;;18.92;;
71896;SDS011;59767;51.344;12.362;2022-10-31T14:34:52;46.83;;;20.35;;
71896;SDS011;59767;51.344;12.362;2022-10-31T14:38:02;48.58;;;21.38;;
71896;SDS011;59767;51.344;12.362;2022-10-31T14:47:42;46.88;;;20.85;;
71896;SDS011;59767;51.344;12.362;2022-10-31T14:50:57;43.25;;;19.80;;
71896;SDS011;59767;51.344;12.362;2022-10-31T14:54:03;37.53;;;19.40;;
71896;SDS011;59767;51.344;12.362;2022-10-31T14:57:16;58.90;;;24.70;;
71896;SDS011;59767;51.344;12.362;2022-10-31T15:00:25;53.05;;;25.23;;
71896;SDS011;59767;51.344;12.362;2022-10-31T15:03:32;62.75;;;26.48;;
71896;SDS011;59767;51.344;12.362;2022-10-31T15:07:08;63.92;;;28.58;;
71896;SDS011;59767;51.344;12.362;2022-10-31T15:10:25;67.18;;;30.23;;
71896;SDS011;59767;51.344;12.362;2022-10-31T15:13:30;62.30;;;28.85;;
71896;SDS011;59767;51.344;12.362;2022-10-31T15:16:35;65.80;;;31.10;;
71896;SDS011;59767;51.344;12.362;2022-10-31T15:19:43;67.00;;;31.45;;
71896;SDS011;59767;51.344;12.362;2022-10-31T15:22:48;65.10;;;30.80;;
71896;SDS011;59767;51.344;12.362;2022-10-31T15:26:03;62.75;;;30.02;;
71896;SDS011;59767;51.344;12.362;2022-10-31T15:29:13;67.07;;;30.17;;
71896;SDS011;59767;51.344;12.362;2022-10-31T15:32:26;69.03;;;30.50;;
71896;SDS011;59767;51.344;12.362;2022-10-31T15:35:31;65.05;;;29.33;;
71896;SDS011;59767;51.344;12.362;2022-10-31T15:38:35;66.97;;;29.85;;
71896;SDS011;59767;51.344;12.362;2022-10-31T15:41:49;68.72;;;30.73;;
71896;SDS011;59767;51.344;12.362;2022-10-31T15:45:00;73.65;;;31.35;;
71896;SDS011;59767;51.344;12.362;2022-10-31T15:48:13;66.72;;;29.90;;
71896;SDS011;59767;51.344;12.362;2022-10-31T15:51:30;59.75;;;29.02;;
71896;SDS011;59767;51.344;12.362;2022-10-31T15:54:40;64.07;;;30.88;;
71896;SDS011;59767;51.344;12.362;2022-10-31T15:57:50;69.75;;;31.58;;
71896;SDS011;59767;51.344;12.362;2022-10-31T16:01:06;68.63;;;32.38;;
71896;SDS011;59767;51.344;12.362;2022-10-31T16:04:28;72.75;;;31.83;;
71896;SDS011;59767;51.344;12.362;2022-10-31T16:07:33;65.00;;;32.08;;
71896;SDS011;59767;51.344;12.362;2022-10-31T16:10:37;70.18;;;32.42;;
71896;SDS011;59767;51.344;12.362;2022-10-31T16:13:53;71.50;;;33.13;;
71896;SDS011;59767;51.344;12.362;2022-10-31T16:16:58;68.35;;;32.03;;
71896;SDS011;59767;51.344;12.362;2022-10-31T16:20:04;61.97;;;30.65;;
71896;SDS011;59767;51.344;12.362;2022-10-31T16:23:14;73.88;;;32.80;;
71896;SDS011;59767;51.344;12.362;2022-10-31T16:26:21;75.25;;;32.78;;
71896;SDS011;59767;51.344;12.362;2022-10-31T16:29:35;74.07;;;32.67;;
71896;SDS011;59767;51.344;12.362;2022-10-31T16:32:52;66.53;;;32.63;;
71896;SDS011;59767;51.344;12.362;2022-10-31T16:35:58;83.28;;;36.63;;
71896;SDS011;59767;51.344;12.362;2022-10-31T16:39:23;69.47;;;33.17;;
71896;SDS011;59767;51.344;12.362;2022-10-31T16:42:27;70.03;;;33.15;;
71896;SDS011;59767;51.344;12.362;2022-10-31T16:45:31;72.15;;;34.78;;
71896;SDS011;59767;51.344;12.362;2022-10-31T16:48:36;78.90;;;34.10;;
71896;SDS011;59767;51.344;12.362;2022-10-31T16:51:40;68.53;;;32.28;;
71896;SDS011;59767;51.344;12.362;2022-10-31T16:54:44;74.13;;;33.35;;
71896;SDS011;59767;51.344;12.362;2022-10-31T16:57:50;71.07;;;34.28;;
71896;SDS011;59767;51.344;12.362;2022-10-31T17:00:56;78.90;;;35.25;;
71896;SDS011;59767;51.344;12.362;2022-10-31T17:04:01;76.55;;;35.35;;
71896;SDS011;59767;51.344;12.362;2022-10-31T17:07:05;73.78;;;34.58;;
71896;SDS011;59767;51.344;12.362;2022-10-31T17:10:10;70.60;;;34.40;;
71896;SDS011;59767;51.344;12.362;2022-10-31T17:13:18;72.85;;;33.75;;
71896;SDS011;59767;51.344;12.362;2022-10-31T17:16:25;73.93;;;34.42;;
71896;SDS011;59767;51.344;12.362;2022-10-31T17:19:29;74.38;;;36.10;;
71896;SDS011;59767;51.344;12.362;2022-10-31T17:22:33;73.47;;;33.75;;
71896;SDS011;59767;51.344;12.362;2022-10-31T17:25:38;74.38;;;35.00;;
71896;SDS011;59767;51.344;12.362;2022-10-31T17:28:42;78.90;;;35.33;;
71896;SDS011;59767;51.344;12.362;2022-10-31T17:31:46;75.15;;;34.08;;
71896;SDS011;59767;51.344;12.362;2022-10-31T17:34:52;78.18;;;34.78;;
71896;SDS011;59767;51.344;12.362;2022-10-31T17:37:55;80.80;;;36.40;;
71896;SDS011;59767;51.344;12.362;2022-10-31T17:41:03;84.63;;;38.08;;
71896;SDS011;59767;51.344;12.362;2022-10-31T17:44:14;78.30;;;38.40;;
71896;SDS011;59767;51.344;12.362;2022-10-31T17:47:18;80.22;;;39.17;;
71896;SDS011;59767;51.344;12.362;2022-10-31T17:50:23;81.10;;;36.63;;
71896;SDS011;59767;51.344;12.362;2022-10-31T17:53:29;74.60;;;37.47;;
71896;SDS011;59767;51.344;12.362;2022-10-31T17:56:33;71.70;;;36.00;;
71896;SDS011;59767;51.344;12.362;2022-10-31T17:59:38;72.07;;;37.17;;
71896;SDS011;59767;51.344;12.362;2022-10-31T18:02:42;77.82;;;38.42;;
71896;SDS011;59767;51.344;12.362;2022-10-31T18:05:56;76.90;;;37.10;;
71896;SDS011;59767;51.344;12.362;2022-10-31T18:09:05;74.13;;;37.30;;
71896;SDS011;59767;51.344;12.362;2022-10-31T18:12:09;80.50;;;36.58;;
71896;SDS011;59767;51.344;12.362;2022-10-31T18:15:14;74.47;;;36.35;;
71896;SDS011;59767;51.344;12.362;2022-10-31T18:18:19;82.95;;;39.42;;
71896;SDS011;59767;51.344;12.362;2022-10-31T18:21:23;74.15;;;38.13;;
71896;SDS011;59767;51.344;12.362;2022-10-31T18:24:28;80.28;;;36.78;;
71896;SDS011;59767;51.344;12.362;2022-10-31T18:27:32;75.28;;;35.88;;
71896;SDS011;59767;51.344;12.362;2022-10-31T18:30:40;69.38;;;35.03;;
71896;SDS011;59767;51.344;12.362;2022-10-31T18:33:44;79.00;;;37.50;;
71896;SDS011;59767;51.344;12.362;2022-10-31T18:36:48;71.20;;;37.65;;
71896;SDS011;59767;51.344;12.362;2022-10-31T18:39:53;69.53;;;35.42;;
71896;SDS011;59767;51.344;12.362;2022-10-31T18:42:57;78.13;;;36.58;;
71896;SDS011;59767;51.344;12.362;2022-10-31T18:46:02;69.10;;;36.20;;
71896;SDS011;59767;51.344;12.362;2022-10-31T18:49:07;65.53;;;35.88;;
71896;SDS011;59767;51.344;12.362;2022-10-31T18:52:11;67.20;;;35.55;;
71896;SDS011;59767;51.344;12.362;2022-10-31T18:55:16;73.75;;;35.60;;
71896;SDS011;59767;51.344;12.362;2022-10-31T18:58:20;70.28;;;34.47;;
71896;SDS011;59767;51.344;12.362;2022-10-31T19:01:24;72.22;;;35.45;;
71896;SDS011;59767;51.344;12.362;2022-10-31T19:04:28;70.97;;;35.15;;
71896;SDS011;59767;51.344;12.362;2022-10-31T19:07:32;66.88;;;35.40;;
71896;SDS011;59767;51.344;12.362;2022-10-31T19:10:37;70.15;;;36.28;;
71896;SDS011;59767;51.344;12.362;2022-10-31T19:13:41;65.72;;;34.60;;
71896;SDS011;59767;51.344;12.362;2022-10-31T19:16:46;64.45;;;34.33;;
71896;SDS011;59767;51.344;12.362;2022-10-31T19:19:50;68.03;;;34.50;;
71896;SDS011;59767;51.344;12.362;2022-10-31T19:22:54;61.80;;;33.90;;
71896;SDS011;59767;51.344;12.362;2022-10-31T19:25:58;61.50;;;33.83;;
71896;SDS011;59767;51.344;12.362;2022-10-31T19:29:02;69.32;;;34.63;;
71896;SDS011;59767;51.344;12.362;2022-10-31T19:32:07;70.95;;;35.38;;
71896;SDS011;59767;51.344;12.362;2022-10-31T19:35:11;65.95;;;33.83;;
71896;SDS011;59767;51.344;12.362;2022-10-31T19:38:15;78.72;;;36.10;;
71896;SDS011;59767;51.344;12.362;2022-10-31T19:41:25;69.20;;;33.85;;
71896;SDS011;59767;51.344;12.362;2022-10-31T19:44:34;60.83;;;33.90;;
71896;SDS011;59767;51.344;12.362;2022-10-31T19:47:41;64.28;;;33.35;;
71896;SDS011;59767;51.344;12.362;2022-10-31T19:50:45;73.85;;;33.17;;